ハバロフスク の空港の天気 - METARとTAF

ハバロフスク空港 ( UHHH / KHV ) - ロシア ハバロフスク
飛行場実況気象(Metar)
観測時間04/26 02:00 +10 (04/25 16:00 UTC)
風向・風速北北東 2m/s
視程1200m
天気現象
全天を覆う雲 鉛直視程 90m
気温2℃
湿度100%
気圧1008hPa
METARUHHH 251600Z 03002MPS 1200 0200NE R23L/0600U FG VV003 02/02 Q1008 R23L/290045 NOSIG RMK QBB100 QFE749/0999
過去の天気等 Google飛行場航空写真 Wunderground天気予報

過去48時間のMETAR

飛行場予報(TAF)
発表時間: 4/26 01:37 +10 (4/25 15:37 UTC)
予報対象時間: 26日1時 +10 ~ 27日7時 +10
風向・風速不定 1m/s
視程350m
天気現象
全天を覆う雲 鉛直視程 60m
26日8時 +10 ~ 26日10時 +10 に徐々に
視程2,000m
天気現象もや
全天の4割程度の雲 雲底高度 180m
26日11時 +10 から
風向・風速西南西 3m/s
視程10km以上
天気現象弱いしゅう雨
全天の4割程度の雲 雲底高度 300m
全天の8割程度の積乱雲 雲底高度 610m
TAF AMD UHHH 251537Z 2515/2621 VRB01MPS 0350 FG VV002
BECMG 2522/2524 2000 BR SCT006
FM260100 25003MPS 9999 -SHRA SCT010 BKN020CB